Terminal Aerodrome Forecast
Issued by NWS Upton, NY

Home | Current Version | Previous Version | Text Only | Print | Product List | Glossary On
Versions: 1 2 3 4 5 6 7 8 9 10 11 12 13 14 15 16 17 18 19 20 21 22 23 24 25 26 27 28 29 30 31 32 33
000
FTUS41 KOKX 172126 AAB
TAFBDR
TAF AMD
KBDR 172126Z 1721/1818 13006KT P6SM BKN250
     FM180300 19006KT P6SM OVC200
     FM180700 17005KT P6SM VCSH OVC100
     FM181500 17008KT 2SM -SHRA OVC015
     FM181600 17008KT 2SM -SHRA VCTS OVC015CB=

USA.gov is the U.S. government's official web portal to all federal, state and local government web resources and services.